Time;durP1;ratioP1;P1;durP2;ratioP2;P2;SDS_P1;SDS_P2;PMS_P1;PMS_P2;Temp;Humidity;BMP_temperature;BMP_pressure;BME280_temperature;BME280_humidity;BME280_pressure;Samples;Min_cycle;Max_cycle;Signal;HPM_P1;HPM_P2
2022/09/03 00:00:44;;;;;;;;;;;17.90;83.00;;;;;;5073057;28;19916;-47
2022/09/03 00:03:30;;;;;;;;;;;17.70;83.20;;;;;;5073222;28;19916;-47
2022/09/03 00:05:55;;;;;;;;;;;17.70;83.40;;;;;;5072536;28;19916;-49
2022/09/03 00:08:41;;;;;;;;;;;17.70;83.40;;;;;;5072279;28;20495;-46
2022/09/03 00:11:22;;;;;;;;;;;17.70;83.80;;;;;;5072934;28;19927;-49
2022/09/03 00:13:51;;;;;;;;;;;17.60;83.60;;;;;;5073056;28;19976;-47
2022/09/03 00:16:20;;;;;;;;;;;17.60;83.90;;;;;;5073086;28;19923;-49
2022/09/03 00:18:53;;;;;;;;;;;17.60;83.80;;;;;;5071645;28;19920;-47
2022/09/03 00:21:33;;;;;;;;;;;17.50;84.00;;;;;;5072968;28;19924;-49
2022/09/03 00:23:59;;;;;;;;;;;17.30;84.20;;;;;;5073015;28;20330;-49
2022/09/03 00:26:27;;;;;;;;;;;17.40;84.30;;;;;;5072614;28;20307;-47
2022/09/03 00:28:53;;;;;;;;;;;17.40;84.30;;;;;;5072635;28;19924;-46
2022/09/03 00:31:25;;;;;;;;;;;17.30;84.40;;;;;;5071573;28;19927;-47
2022/09/03 00:33:57;;;;;;;;;;;17.30;84.50;;;;;;5072671;28;19951;-50
2022/09/03 00:36:41;;;;;;;;;;;17.30;84.50;;;;;;5072622;28;20369;-50
2022/09/03 00:39:14;;;;;;;;;;;17.30;84.80;;;;;;5071270;28;19920;-48
2022/09/03 00:41:46;;;;;;;;;;;17.30;84.70;;;;;;5072275;28;19916;-49
2022/09/03 00:44:11;;;;;;;;;;;17.20;84.60;;;;;;5054548;28;20013;-49
2022/09/03 00:47:00;;;;;;;;;;;17.20;84.70;;;;;;5072511;28;20453;-48
2022/09/03 00:49:26;;;;;;;;;;;17.20;84.60;;;;;;5071593;28;20292;-49
2022/09/03 00:51:51;;;;;;;;;;;17.20;85.00;;;;;;5072247;28;19916;-48
2022/09/03 00:54:20;;;;;;;;;;;17.20;84.70;;;;;;5072150;28;20169;-51
2022/09/03 00:56:46;;;;;;;;;;;17.10;84.60;;;;;;5071878;28;20287;-50
2022/09/03 00:59:17;;;;;;;;;;;17.10;84.60;;;;;;5070897;28;19927;-51
2022/09/03 01:01:59;;;;;;;;;;;17.20;84.50;;;;;;5072337;28;19966;-49
2022/09/03 01:04:27;;;;;;;;;;;17.10;84.70;;;;;;5072037;28;20013;-49
2022/09/03 01:07:14;;;;;;;;;;;17.10;84.60;;;;;;5072182;28;20398;-48
2022/09/03 01:09:48;;;;;;;;;;;17.10;84.50;;;;;;5064596;28;19939;-48
2022/09/03 01:12:19;;;;;;;;;;;17.10;84.70;;;;;;5071372;28;20375;-48
2022/09/03 01:14:57;;;;;;;;;;;17.10;84.60;;;;;;5071781;28;19920;-49
2022/09/03 01:17:32;;;;;;;;;;;17.10;84.70;;;;;;5072048;28;20299;-47
2022/09/03 01:20:00;;;;;;;;;;;17.10;84.60;;;;;;5071743;28;20367;-49
2022/09/03 01:22:31;;;;;;;;;;;17.00;84.60;;;;;;5071629;28;20382;-47
2022/09/03 01:25:00;;;;;;;;;;;17.00;84.60;;;;;;5071699;28;19920;-47
2022/09/03 01:27:42;;;;;;;;;;;17.00;84.70;;;;;;5071747;28;20016;-47
2022/09/03 01:30:11;;;;;;;;;;;17.00;84.60;;;;;;5071526;28;20011;-48
2022/09/03 01:32:37;;;;;;;;;;;16.90;84.70;;;;;;5071528;28;19970;-47
2022/09/03 01:35:15;;;;;;;;;;;16.90;84.70;;;;;;5071488;28;19920;-49
2022/09/03 01:37:59;;;;;;;;;;;16.90;84.80;;;;;;5071463;28;20022;-49
2022/09/03 01:40:43;;;;;;;;;;;16.90;84.90;;;;;;5071347;28;19942;-46
2022/09/03 01:43:13;;;;;;;;;;;16.80;85.00;;;;;;5071188;28;19960;-47
2022/09/03 01:45:39;;;;;;;;;;;16.80;84.80;;;;;;5070876;28;20276;-49
2022/09/03 01:48:07;;;;;;;;;;;16.80;85.20;;;;;;5071041;28;19990;-49
2022/09/03 01:50:46;;;;;;;;;;;16.80;85.10;;;;;;5071064;28;19924;-49
2022/09/03 01:53:24;;;;;;;;;;;16.80;85.30;;;;;;5070820;28;19928;-46
2022/09/03 01:55:54;;;;;;;;;;;16.70;85.40;;;;;;5070956;28;19916;-48
2022/09/03 01:58:24;;;;;;;;;;;16.60;85.20;;;;;;5071625;28;19939;-47
2022/09/03 02:00:55;;;;;;;;;;;16.60;85.20;;;;;;5071312;28;20065;-45
2022/09/03 02:03:22;;;;;;;;;;;16.60;85.60;;;;;;5071373;28;19920;-45
2022/09/03 02:05:49;;;;;;;;;;;16.60;85.60;;;;;;5070897;28;20030;-48
2022/09/03 02:08:15;;;;;;;;;;;16.50;85.70;;;;;;5071078;28;20387;-45
2022/09/03 02:10:43;;;;;;;;;;;16.50;85.70;;;;;;5070643;28;19963;-49
2022/09/03 02:13:12;;;;;;;;;;;16.50;85.80;;;;;;5069221;28;19931;-47
2022/09/03 02:15:40;;;;;;;;;;;16.40;86.00;;;;;;5070900;28;20445;-47
2022/09/03 02:18:09;;;;;;;;;;;16.50;86.10;;;;;;5070984;28;19920;-49
2022/09/03 02:20:35;;;;;;;;;;;16.40;86.10;;;;;;5070554;28;20447;-47
2022/09/03 02:23:01;;;;;;;;;;;16.40;86.10;;;;;;5070210;28;19939;-49
2022/09/03 02:25:32;;;;;;;;;;;16.40;86.20;;;;;;5070526;28;19916;-46
2022/09/03 02:27:59;;;;;;;;;;;16.40;86.10;;;;;;5070583;28;19927;-48
2022/09/03 02:30:24;;;;;;;;;;;16.40;86.10;;;;;;5069613;28;20371;-49
2022/09/03 02:32:50;;;;;;;;;;;16.40;86.10;;;;;;5069277;28;20056;-48
2022/09/03 02:35:15;;;;;;;;;;;16.40;86.00;;;;;;5070595;28;19920;-45
2022/09/03 02:37:41;;;;;;;;;;;16.40;86.10;;;;;;5070487;28;19917;-48
2022/09/03 02:40:09;;;;;;;;;;;16.40;85.90;;;;;;5070672;28;19924;-48
2022/09/03 02:42:35;;;;;;;;;;;16.30;86.00;;;;;;5070601;28;20356;-48
2022/09/03 02:45:07;;;;;;;;;;;16.30;86.00;;;;;;5070390;28;19923;-46
2022/09/03 02:47:34;;;;;;;;;;;16.30;86.10;;;;;;5069643;28;20347;-45
2022/09/03 02:50:00;;;;;;;;;;;16.30;86.20;;;;;;5070455;28;20350;-48
2022/09/03 02:52:25;;;;;;;;;;;16.30;86.20;;;;;;5069845;28;19967;-48
2022/09/03 02:54:51;;;;;;;;;;;16.30;86.00;;;;;;5070366;28;20342;-47
2022/09/03 02:57:16;;;;;;;;;;;16.20;86.10;;;;;;5069967;28;19916;-51
2022/09/03 02:59:45;;;;;;;;;;;16.20;86.20;;;;;;5070172;28;19924;-46
2022/09/03 03:02:12;;;;;;;;;;;16.20;86.40;;;;;;5068834;28;19916;-50
2022/09/03 03:04:37;;;;;;;;;;;16.20;86.60;;;;;;5069803;28;20006;-51
2022/09/03 03:07:04;;;;;;;;;;;16.10;86.20;;;;;;5069941;28;20020;-46
2022/09/03 03:09:29;;;;;;;;;;;16.20;86.50;;;;;;5069735;28;19923;-48
2022/09/03 03:11:55;;;;;;;;;;;16.10;86.50;;;;;;5069863;28;19916;-49
2022/09/03 03:14:21;;;;;;;;;;;16.10;86.70;;;;;;5070088;28;19928;-45
2022/09/03 03:16:47;;;;;;;;;;;16.00;86.60;;;;;;5069802;28;20007;-46
2022/09/03 03:19:12;;;;;;;;;;;16.00;86.70;;;;;;5068909;28;20324;-47
2022/09/03 03:21:38;;;;;;;;;;;16.00;86.80;;;;;;5069704;28;20015;-46
2022/09/03 03:24:03;;;;;;;;;;;16.00;86.90;;;;;;5068391;28;19923;-49
2022/09/03 03:26:29;;;;;;;;;;;15.90;86.90;;;;;;5069168;28;20023;-48
2022/09/03 03:28:56;;;;;;;;;;;15.90;86.90;;;;;;5068573;28;19923;-47
2022/09/03 03:31:21;;;;;;;;;;;16.00;87.10;;;;;;5069972;28;20037;-48
2022/09/03 03:33:54;;;;;;;;;;;15.90;87.00;;;;;;5070315;28;19954;-49
2022/09/03 03:36:20;;;;;;;;;;;15.90;87.10;;;;;;5073642;28;20295;-49
2022/09/03 03:38:46;;;;;;;;;;;15.90;87.30;;;;;;5072776;28;20015;-47
2022/09/03 03:41:16;;;;;;;;;;;15.80;87.30;;;;;;5073934;28;20458;-49
2022/09/03 03:43:42;;;;;;;;;;;15.80;87.40;;;;;;5074007;28;19974;-49
2022/09/03 03:46:07;;;;;;;;;;;15.80;87.30;;;;;;5073448;28;19966;-48
2022/09/03 03:48:33;;;;;;;;;;;15.80;87.50;;;;;;5073425;28;19928;-48
2022/09/03 03:51:03;;;;;;;;;;;15.70;87.60;;;;;;5073837;28;19916;-47
2022/09/03 03:53:29;;;;;;;;;;;15.70;87.70;;;;;;5072531;28;19928;-47
2022/09/03 03:55:56;;;;;;;;;;;15.70;87.80;;;;;;5072864;28;19920;-46
2022/09/03 03:58:22;;;;;;;;;;;15.70;88.00;;;;;;5073761;28;19924;-50
2022/09/03 04:00:48;;;;;;;;;;;15.60;88.10;;;;;;5073398;28;20284;-49
2022/09/03 04:03:14;;;;;;;;;;;15.60;88.10;;;;;;5073329;28;19917;-47
2022/09/03 04:05:39;;;;;;;;;;;15.60;88.10;;;;;;5073012;28;19924;-47
2022/09/03 04:08:05;;;;;;;;;;;15.50;88.20;;;;;;5073194;28;19927;-49
2022/09/03 04:10:31;;;;;;;;;;;15.50;88.40;;;;;;5073053;28;20003;-47
2022/09/03 04:12:56;;;;;;;;;;;15.50;88.40;;;;;;5073446;28;19969;-50
2022/09/03 04:15:22;;;;;;;;;;;15.50;88.50;;;;;;5073076;28;20008;-48
2022/09/03 04:17:47;;;;;;;;;;;15.40;88.50;;;;;;5072698;28;19928;-47
2022/09/03 04:20:13;;;;;;;;;;;15.40;88.70;;;;;;5071409;28;20015;-46
2022/09/03 04:22:38;;;;;;;;;;;15.40;88.70;;;;;;5071798;28;19916;-47
2022/09/03 04:25:04;;;;;;;;;;;15.30;88.90;;;;;;5071365;28;20253;-45
2022/09/03 04:27:30;;;;;;;;;;;15.30;88.80;;;;;;5072771;28;19917;-49
2022/09/03 04:29:55;;;;;;;;;;;15.30;89.20;;;;;;5073102;28;19943;-49
2022/09/03 04:35:05;;;;;;;;;;;15.30;89.40;;;;;;5071837;28;19927;-51
2022/09/03 04:37:31;;;;;;;;;;;15.20;89.50;;;;;;5053912;28;19916;-48
2022/09/03 04:39:57;;;;;;;;;;;15.20;89.50;;;;;;5071104;28;19970;-47
2022/09/03 04:42:23;;;;;;;;;;;15.10;89.70;;;;;;5072777;28;20315;-47
2022/09/03 04:44:49;;;;;;;;;;;15.10;89.70;;;;;;5072541;28;20015;-49
2022/09/03 04:47:15;;;;;;;;;;;15.10;89.90;;;;;;5072059;28;19975;-46
2022/09/03 04:49:40;;;;;;;;;;;15.00;89.80;;;;;;5071218;28;20375;-45
2022/09/03 04:52:06;;;;;;;;;;;15.00;90.00;;;;;;5070723;28;20486;-47
2022/09/03 04:54:32;;;;;;;;;;;15.00;90.10;;;;;;5072603;28;20328;-49
2022/09/03 04:56:57;;;;;;;;;;;15.00;90.20;;;;;;5071929;28;19920;-47
2022/09/03 04:59:23;;;;;;;;;;;15.00;90.30;;;;;;5072468;28;19950;-46
2022/09/03 05:01:48;;;;;;;;;;;14.90;90.40;;;;;;5071984;28;20414;-47
2022/09/03 05:04:14;;;;;;;;;;;14.90;90.50;;;;;;5071717;28;19916;-48
2022/09/03 05:06:39;;;;;;;;;;;14.80;90.80;;;;;;5071874;28;19998;-49
2022/09/03 05:09:05;;;;;;;;;;;14.80;90.70;;;;;;5072365;28;19954;-49
2022/09/03 05:11:31;;;;;;;;;;;14.70;90.80;;;;;;5071429;28;19924;-49
2022/09/03 05:13:58;;;;;;;;;;;14.70;90.90;;;;;;5072386;28;19924;-47
2022/09/03 05:16:24;;;;;;;;;;;14.70;90.90;;;;;;5071436;28;19920;-48
2022/09/03 05:18:53;;;;;;;;;;;14.70;91.00;;;;;;5072052;28;19954;-45
2022/09/03 05:21:19;;;;;;;;;;;14.60;91.00;;;;;;5071895;28;19916;-47
2022/09/03 05:23:45;;;;;;;;;;;14.60;91.10;;;;;;5071450;28;19916;-48
2022/09/03 05:26:13;;;;;;;;;;;14.60;91.20;;;;;;5071201;28;19920;-47
2022/09/03 05:28:39;;;;;;;;;;;14.60;91.20;;;;;;5071708;28;19970;-45
2022/09/03 05:31:06;;;;;;;;;;;14.60;91.40;;;;;;5071811;28;19932;-47
2022/09/03 05:33:35;;;;;;;;;;;14.60;91.40;;;;;;5071766;28;19974;-48
2022/09/03 05:36:02;;;;;;;;;;;14.50;91.50;;;;;;5070934;28;19916;-46
2022/09/03 05:38:28;;;;;;;;;;;14.50;91.50;;;;;;5071669;28;20175;-48
2022/09/03 05:40:56;;;;;;;;;;;14.50;91.60;;;;;;5071735;28;19917;-49
2022/09/03 05:43:22;;;;;;;;;;;14.50;91.70;;;;;;5071246;28;19968;-47
2022/09/03 05:45:47;;;;;;;;;;;14.50;91.90;;;;;;5071387;28;19960;-46
2022/09/03 05:48:13;;;;;;;;;;;14.50;91.90;;;;;;5070989;28;19920;-47
2022/09/03 05:50:38;;;;;;;;;;;14.40;92.10;;;;;;5071498;28;19926;-46
2022/09/03 05:53:04;;;;;;;;;;;14.40;92.20;;;;;;5070749;28;19920;-48
2022/09/03 05:55:30;;;;;;;;;;;14.40;92.30;;;;;;5069756;28;20287;-48
2022/09/03 05:57:55;;;;;;;;;;;14.40;92.40;;;;;;5068997;28;19916;-51
2022/09/03 06:00:21;;;;;;;;;;;14.40;92.50;;;;;;5071036;28;19931;-48
2022/09/03 06:02:52;;;;;;;;;;;14.50;92.60;;;;;;5071508;28;19916;-46
2022/09/03 06:05:18;;;;;;;;;;;14.60;92.70;;;;;;5071114;28;19982;-49
2022/09/03 06:07:47;;;;;;;;;;;14.60;92.60;;;;;;5070804;28;19948;-46
2022/09/03 06:10:14;;;;;;;;;;;14.70;92.30;;;;;;5070916;28;19916;-49
2022/09/03 06:12:40;;;;;;;;;;;14.90;92.40;;;;;;5069823;28;20282;-48
2022/09/03 06:15:06;;;;;;;;;;;14.90;92.20;;;;;;5070931;28;19916;-47
2022/09/03 06:17:31;;;;;;;;;;;14.90;92.20;;;;;;5070360;28;19955;-46
2022/09/03 06:19:57;;;;;;;;;;;15.00;92.30;;;;;;5070202;28;19995;-48
2022/09/03 06:22:24;;;;;;;;;;;15.00;92.30;;;;;;5070373;28;19927;-48
2022/09/03 06:24:49;;;;;;;;;;;15.00;92.40;;;;;;5069710;28;19927;-46
2022/09/03 06:27:15;;;;;;;;;;;15.00;92.30;;;;;;5070583;28;19917;-51
2022/09/03 06:29:41;;;;;;;;;;;15.00;92.50;;;;;;5069095;28;20002;-47
2022/09/03 06:32:06;;;;;;;;;;;15.10;92.50;;;;;;5070426;28;19920;-47
2022/09/03 06:34:32;;;;;;;;;;;15.20;92.40;;;;;;5070390;28;19924;-47
2022/09/03 06:36:58;;;;;;;;;;;15.20;92.40;;;;;;5069940;28;19924;-49
2022/09/03 06:39:24;;;;;;;;;;;15.30;92.20;;;;;;5070579;28;19916;-47
2022/09/03 06:41:50;;;;;;;;;;;15.30;92.30;;;;;;5070300;28;20019;-46
2022/09/03 06:44:16;;;;;;;;;;;15.40;92.20;;;;;;5070297;28;19920;-48
2022/09/03 06:46:42;;;;;;;;;;;15.50;92.30;;;;;;5068637;28;19920;-48
2022/09/03 06:49:08;;;;;;;;;;;15.50;92.00;;;;;;5069986;28;20031;-46
2022/09/03 06:51:35;;;;;;;;;;;15.60;91.90;;;;;;5070040;28;20006;-47
2022/09/03 06:54:02;;;;;;;;;;;15.70;91.80;;;;;;5069736;28;19924;-48
2022/09/03 06:56:27;;;;;;;;;;;15.70;91.80;;;;;;5069920;28;19924;-47
2022/09/03 06:58:54;;;;;;;;;;;15.80;91.50;;;;;;5070436;28;19977;-47
2022/09/03 07:01:24;;;;;;;;;;;15.90;91.60;;;;;;5069937;28;19923;-48
2022/09/03 07:03:56;;;;;;;;;;;16.00;91.50;;;;;;5070327;28;20363;-46
2022/09/03 07:06:23;;;;;;;;;;;16.10;91.30;;;;;;5069796;28;19922;-46
2022/09/03 07:08:49;;;;;;;;;;;16.20;91.10;;;;;;5070098;28;20007;-47
2022/09/03 07:11:16;;;;;;;;;;;16.20;90.80;;;;;;5069630;28;20007;-46
2022/09/03 07:13:43;;;;;;;;;;;16.30;90.80;;;;;;5070042;28;19960;-47
2022/09/03 07:16:10;;;;;;;;;;;16.40;90.80;;;;;;5069100;28;19924;-46
2022/09/03 07:18:36;;;;;;;;;;;16.50;90.80;;;;;;5070357;28;19920;-48
2022/09/03 07:21:03;;;;;;;;;;;16.50;90.50;;;;;;5069697;28;19920;-50
2022/09/03 07:23:29;;;;;;;;;;;16.60;90.70;;;;;;5068145;28;19928;-51
2022/09/03 07:25:55;;;;;;;;;;;16.70;90.80;;;;;;5069723;28;20185;-47
2022/09/03 07:28:22;;;;;;;;;;;16.80;90.20;;;;;;5069785;28;19924;-50
2022/09/03 07:30:47;;;;;;;;;;;16.90;90.40;;;;;;5069928;28;19922;-48
2022/09/03 07:33:13;;;;;;;;;;;16.90;90.00;;;;;;5069736;28;19924;-47
2022/09/03 07:35:38;;;;;;;;;;;17.00;90.10;;;;;;5069678;28;19953;-48
2022/09/03 07:38:04;;;;;;;;;;;17.00;90.40;;;;;;5068350;28;19924;-49
2022/09/03 07:40:31;;;;;;;;;;;17.20;90.00;;;;;;5069982;28;19973;-47
2022/09/03 07:43:00;;;;;;;;;;;17.30;89.70;;;;;;5068007;28;19963;-50
2022/09/03 07:45:27;;;;;;;;;;;17.40;89.50;;;;;;5069800;28;20389;-47
2022/09/03 07:47:53;;;;;;;;;;;17.50;90.10;;;;;;5068856;28;20007;-47
2022/09/03 07:50:19;;;;;;;;;;;17.50;90.00;;;;;;5069929;28;20010;-48
2022/09/03 07:52:46;;;;;;;;;;;17.60;89.20;;;;;;5069039;28;19965;-48
2022/09/03 07:55:12;;;;;;;;;;;17.60;88.80;;;;;;5069809;28;20062;-50
2022/09/03 07:57:38;;;;;;;;;;;17.70;89.20;;;;;;5069279;28;20006;-50
2022/09/03 08:00:07;;;;;;;;;;;17.80;88.70;;;;;;5069374;28;20430;-47
2022/09/03 08:02:32;;;;;;;;;;;17.90;88.20;;;;;;5068784;28;20238;-48
2022/09/03 08:04:59;;;;;;;;;;;18.00;88.00;;;;;;5069401;28;19927;-47
2022/09/03 08:07:24;;;;;;;;;;;18.10;87.80;;;;;;5069386;28;20283;-49
2022/09/03 08:09:50;;;;;;;;;;;18.20;87.60;;;;;;5069632;28;19924;-46
2022/09/03 08:12:15;;;;;;;;;;;18.30;87.00;;;;;;5069241;28;19920;-49
2022/09/03 08:14:41;;;;;;;;;;;18.40;87.60;;;;;;5069564;28;20291;-50
2022/09/03 08:17:07;;;;;;;;;;;18.40;87.60;;;;;;5068854;28;19916;-47
2022/09/03 08:19:33;;;;;;;;;;;18.50;87.40;;;;;;5069582;28;19916;-50
2022/09/03 08:21:59;;;;;;;;;;;18.70;87.10;;;;;;5072668;28;19924;-46
2022/09/03 08:24:25;;;;;;;;;;;18.70;86.20;;;;;;5073127;28;19970;-48
2022/09/03 08:26:50;;;;;;;;;;;18.80;86.50;;;;;;5072698;28;21178;-50
2022/09/03 08:29:16;;;;;;;;;;;18.90;86.50;;;;;;5071573;28;19939;-48
2022/09/03 08:31:43;;;;;;;;;;;19.00;86.30;;;;;;5071597;28;19916;-49
2022/09/03 08:34:10;;;;;;;;;;;19.10;85.60;;;;;;5072686;28;19928;-49
2022/09/03 08:36:37;;;;;;;;;;;19.20;86.50;;;;;;5071441;28;20274;-49
2022/09/03 08:39:08;;;;;;;;;;;19.30;86.10;;;;;;5072715;28;19964;-49
2022/09/03 08:41:46;;;;;;;;;;;19.40;84.80;;;;;;5072423;28;20007;-48
2022/09/03 08:44:11;;;;;;;;;;;19.40;84.50;;;;;;5070666;28;19955;-49
2022/09/03 08:46:50;;;;;;;;;;;19.40;84.10;;;;;;5070971;28;19963;-48
2022/09/03 08:49:21;;;;;;;;;;;19.60;85.40;;;;;;5072739;28;19979;-48
2022/09/03 08:51:47;;;;;;;;;;;19.70;84.70;;;;;;5072244;28;19920;-47
2022/09/03 08:54:13;;;;;;;;;;;19.80;85.10;;;;;;5072538;28;20279;-48
2022/09/03 08:56:41;;;;;;;;;;;20.00;84.60;;;;;;5070662;28;19920;-49
2022/09/03 08:59:07;;;;;;;;;;;19.90;84.10;;;;;;5072606;28;20276;-48
2022/09/03 09:01:48;;;;;;;;;;;20.30;84.70;;;;;;5072206;28;20318;-49
2022/09/03 09:04:33;;;;;;;;;;;20.50;84.30;;;;;;5072561;28;19947;-47
2022/09/03 09:07:18;;;;;;;;;;;20.70;83.90;;;;;;5071975;28;19916;-50
2022/09/03 09:10:04;;;;;;;;;;;20.90;83.00;;;;;;5072365;28;20046;-47
2022/09/03 09:12:29;;;;;;;;;;;20.80;82.00;;;;;;5072169;28;19923;-50
2022/09/03 09:15:07;;;;;;;;;;;20.80;82.70;;;;;;5072105;28;20376;-46
2022/09/03 09:17:36;;;;;;;;;;;21.10;83.10;;;;;;5071757;28;20007;-47
2022/09/03 09:20:07;;;;;;;;;;;21.30;82.40;;;;;;5072362;28;20564;-46
2022/09/03 09:22:35;;;;;;;;;;;21.40;82.30;;;;;;5071619;28;20007;-49
2022/09/03 09:25:04;;;;;;;;;;;21.60;82.40;;;;;;5071835;28;20371;-48
2022/09/03 09:27:31;;;;;;;;;;;21.70;82.30;;;;;;5071803;28;20384;-47
2022/09/03 09:29:57;;;;;;;;;;;21.80;81.60;;;;;;5070793;28;20394;-46
2022/09/03 09:32:22;;;;;;;;;;;22.00;80.90;;;;;;5070641;28;20062;-49
2022/09/03 09:34:48;;;;;;;;;;;22.10;81.10;;;;;;5071772;28;19924;-46
2022/09/03 09:37:14;;;;;;;;;;;22.10;79.40;;;;;;5070083;28;19920;-44
2022/09/03 09:39:52;;;;;;;;;;;22.30;79.90;;;;;;5071434;28;20011;-49
2022/09/03 09:42:20;;;;;;;;;;;22.40;80.70;;;;;;5053654;28;19924;-45
2022/09/03 09:44:46;;;;;;;;;;;22.50;80.10;;;;;;5071299;28;19917;-46
2022/09/03 09:47:23;;;;;;;;;;;22.60;80.00;;;;;;5070822;28;19930;-45
2022/09/03 09:49:52;;;;;;;;;;;22.60;80.10;;;;;;5069974;28;20015;-50
2022/09/03 09:52:17;;;;;;;;;;;22.80;80.40;;;;;;5071069;28;19916;-48
2022/09/03 09:54:45;;;;;;;;;;;23.00;78.60;;;;;;5071396;28;19916;-47
2022/09/03 09:57:18;;;;;;;;;;;22.90;77.70;;;;;;5070738;28;19966;-49
2022/09/03 09:59:48;;;;;;;;;;;22.80;78.50;;;;;;5071087;28;20413;-47
2022/09/03 10:02:27;;;;;;;;;;;22.90;78.80;;;;;;5071767;28;19916;-46
2022/09/03 10:04:56;;;;;;;;;;;23.10;78.30;;;;;;5071083;28;19917;-45
2022/09/03 10:07:23;;;;;;;;;;;23.20;77.90;;;;;;5070887;28;20379;-48
2022/09/03 10:10:01;;;;;;;;;;;23.20;77.30;;;;;;5069982;28;20003;-47
2022/09/03 10:12:43;;;;;;;;;;;23.40;77.70;;;;;;5071147;28;20342;-45
2022/09/03 10:15:24;;;;;;;;;;;23.30;77.80;;;;;;5069519;28;20299;-48
2022/09/03 10:17:58;;;;;;;;;;;23.40;76.80;;;;;;5069214;28;19920;-46
2022/09/03 10:20:43;;;;;;;;;;;23.50;76.30;;;;;;5070907;28;19920;-45
2022/09/03 10:23:15;;;;;;;;;;;23.40;76.30;;;;;;5070111;28;19970;-48
2022/09/03 10:25:40;;;;;;;;;;;23.60;77.00;;;;;;5069180;28;19924;-48
2022/09/03 10:28:07;;;;;;;;;;;23.70;76.80;;;;;;5069238;28;20002;-49
2022/09/03 10:30:45;;;;;;;;;;;23.90;75.60;;;;;;5070631;28;19921;-50
2022/09/03 10:33:15;;;;;;;;;;;24.00;76.10;;;;;;5070384;28;20295;-47
2022/09/03 10:35:52;;;;;;;;;;;24.00;76.60;;;;;;5070553;28;19924;-46
2022/09/03 10:38:28;;;;;;;;;;;24.00;75.10;;;;;;5070250;28;19917;-49
2022/09/03 10:41:06;;;;;;;;;;;24.20;76.50;;;;;;5070322;28;19920;-48
2022/09/03 10:43:43;;;;;;;;;;;24.30;74.30;;;;;;5070248;28;20003;-47
2022/09/03 10:46:10;;;;;;;;;;;24.30;72.20;;;;;;5070334;28;20044;-48
2022/09/03 10:48:44;;;;;;;;;;;24.30;73.20;;;;;;5068290;28;19920;-47
2022/09/03 10:51:26;;;;;;;;;;;24.40;72.10;;;;;;5070382;28;19920;-51
2022/09/03 10:53:59;;;;;;;;;;;24.70;73.80;;;;;;5069435;28;20012;-47
2022/09/03 10:56:34;;;;;;;;;;;24.90;74.00;;;;;;5069706;28;19920;-47
2022/09/03 10:59:00;;;;;;;;;;;25.00;71.70;;;;;;5069972;28;20343;-47
2022/09/03 11:01:31;;;;;;;;;;;24.90;70.90;;;;;;5069964;28;19967;-48
2022/09/03 11:04:13;;;;;;;;;;;24.90;72.00;;;;;;5070120;28;19920;-47
2022/09/03 11:06:46;;;;;;;;;;;25.00;70.60;;;;;;5069732;28;19924;-45
2022/09/03 11:09:15;;;;;;;;;;;25.20;70.30;;;;;;5069910;28;19920;-46
2022/09/03 11:11:58;;;;;;;;;;;25.10;69.90;;;;;;5069247;28;20413;-47
2022/09/03 11:14:45;;;;;;;;;;;25.10;69.10;;;;;;5069658;28;19927;-48
2022/09/03 11:17:14;;;;;;;;;;;25.40;69.60;;;;;;5069457;28;19916;-47
2022/09/03 11:19:46;;;;;;;;;;;25.50;69.40;;;;;;5068402;28;19920;-47
2022/09/03 11:22:15;;;;;;;;;;;25.70;68.20;;;;;;5069455;28;19916;-46
2022/09/03 11:24:40;;;;;;;;;;;25.60;67.10;;;;;;5069736;28;19916;-48
2022/09/03 11:27:06;;;;;;;;;;;25.70;68.00;;;;;;5068105;28;19920;-47
2022/09/03 11:29:49;;;;;;;;;;;25.90;67.80;;;;;;5068417;28;19978;-48
2022/09/03 11:32:20;;;;;;;;;;;26.00;67.30;;;;;;5070064;28;20431;-46
2022/09/03 11:34:47;;;;;;;;;;;26.10;67.60;;;;;;5069522;28;19954;-46
2022/09/03 11:37:26;;;;;;;;;;;26.10;67.40;;;;;;5069300;28;19970;-46
2022/09/03 11:40:10;;;;;;;;;;;26.30;66.90;;;;;;5069216;28;19920;-47
2022/09/03 11:42:37;;;;;;;;;;;26.30;66.80;;;;;;5069650;28;19966;-50
2022/09/03 11:45:22;;;;;;;;;;;26.60;67.70;;;;;;5069489;28;20342;-46
2022/09/03 11:47:48;;;;;;;;;;;26.60;66.80;;;;;;5069022;28;20401;-47
2022/09/03 11:50:19;;;;;;;;;;;26.80;66.50;;;;;;5069855;28;19916;-45
2022/09/03 11:52:46;;;;;;;;;;;26.90;66.60;;;;;;5069214;28;20044;-48
2022/09/03 11:55:23;;;;;;;;;;;26.90;65.90;;;;;;5070613;28;19916;-48
2022/09/03 11:57:48;;;;;;;;;;;27.10;65.50;;;;;;5073235;28;19924;-47
2022/09/03 12:00:21;;;;;;;;;;;27.20;65.40;;;;;;5073205;28;19923;-48
2022/09/03 12:02:53;;;;;;;;;;;27.10;64.50;;;;;;5073598;28;19966;-47
2022/09/03 12:05:24;;;;;;;;;;;27.20;64.80;;;;;;5073400;28;19966;-48
2022/09/03 12:08:01;;;;;;;;;;;27.00;64.50;;;;;;5073310;28;19969;-46
2022/09/03 12:10:26;;;;;;;;;;;27.40;65.90;;;;;;5073349;28;20278;-49
2022/09/03 12:12:58;;;;;;;;;;;27.60;65.60;;;;;;5073260;28;20006;-48
2022/09/03 12:15:42;;;;;;;;;;;27.90;65.60;;;;;;5073194;28;19938;-49
2022/09/03 12:18:19;;;;;;;;;;;27.90;64.60;;;;;;5072625;28;19921;-49
2022/09/03 12:20:46;;;;;;;;;;;27.80;63.40;;;;;;5072984;28;19916;-46
2022/09/03 12:23:13;;;;;;;;;;;28.00;65.20;;;;;;5072882;28;19994;-47
2022/09/03 12:25:46;;;;;;;;;;;28.20;65.40;;;;;;5072962;28;20366;-45
2022/09/03 12:28:15;;;;;;;;;;;28.10;64.30;;;;;;5072743;28;19951;-48
2022/09/03 12:30:41;;;;;;;;;;;28.20;64.40;;;;;;5071906;28;19923;-48
2022/09/03 12:33:07;;;;;;;;;;;28.10;63.90;;;;;;5072600;28;19920;-46
2022/09/03 12:35:33;;;;;;;;;;;28.60;64.80;;;;;;5072717;28;19942;-47
2022/09/03 12:37:58;;;;;;;;;;;28.50;63.20;;;;;;5072688;28;19920;-46
2022/09/03 12:40:25;;;;;;;;;;;28.60;62.90;;;;;;5073008;28;19932;-49
2022/09/03 12:42:51;;;;;;;;;;;28.40;62.80;;;;;;5072812;28;19923;-45
2022/09/03 12:45:25;;;;;;;;;;;28.40;63.50;;;;;;5071450;28;19974;-47
2022/09/03 12:47:52;;;;;;;;;;;28.70;64.40;;;;;;5071997;28;19932;-51
2022/09/03 12:50:22;;;;;;;;;;;28.70;63.40;;;;;;5072386;28;19968;-49
2022/09/03 12:52:50;;;;;;;;;;;28.70;62.60;;;;;;5072213;28;20434;-48
2022/09/03 12:55:26;;;;;;;;;;;28.80;63.80;;;;;;5071122;28;19981;-49
2022/09/03 12:58:01;;;;;;;;;;;28.80;63.00;;;;;;5072401;28;19924;-50
2022/09/03 13:00:27;;;;;;;;;;;29.00;63.10;;;;;;5072583;28;19994;-50
2022/09/03 13:03:01;;;;;;;;;;;29.10;63.00;;;;;;5072446;28;19920;-46
2022/09/03 13:05:31;;;;;;;;;;;29.20;63.80;;;;;;5071763;28;19923;-49
2022/09/03 13:08:04;;;;;;;;;;;29.50;62.70;;;;;;5071646;28;19916;-45
2022/09/03 13:10:36;;;;;;;;;;;29.50;63.00;;;;;;5072279;28;20003;-51
2022/09/03 13:13:25;;;;;;;;;;;29.40;62.00;;;;;;5070424;28;20003;-49
2022/09/03 13:16:04;;;;;;;;;;;29.30;61.70;;;;;;5066000;28;19924;-50
2022/09/03 13:18:53;;;;;;;;;;;29.60;62.30;;;;;;5072052;28;20303;-49
2022/09/03 13:21:27;;;;;;;;;;;29.50;62.70;;;;;;5066238;28;19930;-51
2022/09/03 13:23:53;;;;;;;;;;;29.90;62.30;;;;;;5071490;28;19928;-46
2022/09/03 13:26:27;;;;;;;;;;;29.70;61.50;;;;;;5071452;28;19916;-49
2022/09/03 13:28:53;;;;;;;;;;;29.90;62.00;;;;;;5072051;28;19923;-49
2022/09/03 13:31:24;;;;;;;;;;;30.20;61.80;;;;;;5071502;28;19916;-48
2022/09/03 13:33:53;;;;;;;;;;;30.10;61.90;;;;;;5071340;28;19931;-45
2022/09/03 13:36:22;;;;;;;;;;;30.40;61.30;;;;;;5071301;28;19916;-48
2022/09/03 13:38:51;;;;;;;;;;;30.40;61.60;;;;;;5071715;28;19920;-46
2022/09/03 13:41:34;;;;;;;;;;;30.60;61.90;;;;;;5072027;28;19916;-47
2022/09/03 13:44:04;;;;;;;;;;;30.60;61.20;;;;;;5071701;28;19927;-49
2022/09/03 13:46:30;;;;;;;;;;;30.60;61.00;;;;;;5069605;28;19924;-47
2022/09/03 13:51:59;;;;;;;;;;;31.10;60.80;;;;;;5071315;28;19927;-50
2022/09/03 13:54:30;;;;;;;;;;;31.00;60.80;;;;;;5069249;28;19992;-48
2022/09/03 13:57:01;;;;;;;;;;;31.10;60.30;;;;;;5071126;28;19963;-49
2022/09/03 13:59:26;;;;;;;;;;;31.10;61.70;;;;;;5069704;28;19921;-48
2022/09/03 14:02:04;;;;;;;;;;;31.20;60.20;;;;;;5070912;28;19939;-49
2022/09/03 14:04:43;;;;;;;;;;;31.20;60.30;;;;;;5070791;28;19920;-50
2022/09/03 14:07:13;;;;;;;;;;;30.90;60.40;;;;;;5070574;28;19924;-48
2022/09/03 14:09:48;;;;;;;;;;;30.60;61.50;;;;;;5069308;28;19924;-51
2022/09/03 14:12:19;;;;;;;;;;;30.10;60.30;;;;;;5070578;28;19939;-50
2022/09/03 14:14:51;;;;;;;;;;;30.30;61.30;;;;;;5070863;28;19958;-47
2022/09/03 14:17:25;;;;;;;;;;;30.40;61.00;;;;;;5069801;28;19962;-48
2022/09/03 14:19:57;;;;;;;;;;;30.70;61.10;;;;;;5069207;28;19927;-48
2022/09/03 14:22:41;;;;;;;;;;;30.30;60.30;;;;;;5070361;28;19939;-47
2022/09/03 14:25:13;;;;;;;;;;;30.50;61.50;;;;;;5068885;28;19916;-49
2022/09/03 14:27:39;;;;;;;;;;;30.80;60.60;;;;;;5070388;28;20383;-50
2022/09/03 14:30:08;;;;;;;;;;;30.90;60.50;;;;;;5070469;28;20343;-46
2022/09/03 14:32:52;;;;;;;;;;;31.00;60.30;;;;;;5070387;28;20270;-51
2022/09/03 14:35:26;;;;;;;;;;;31.10;59.70;;;;;;5070425;28;19931;-49